DLH5868 EDDS-LROP
Flight info
| Callsign | DLH5868 |
|---|---|
| Flight time | N/A |
| Altitude | 39000 |
| Route | ABTAL4H/07 ABTAL L173 RIXED Y161 RIDAR Z98 MIQ L605 BIBAG Q104 AKIMA DCT STEIN DCT LAMIT DCT TOSVI TOSVI2U |
| Aircraft | A20N/M-SDE2E3FGHIRWXY/LB1 |
Departure
| Time | 2026-05-04 16:49 |
|---|---|
| Airport | Stuttgart Airport (EDDS) |
Arrival
| Time | N/A |
|---|---|
| Airport | Bucharest Henri Coandă International Airport (LROP) |
| Time | Latitude | Longitude | Altitude | Speed | Heading |
|---|---|---|---|---|---|
| 2026-05-04 16:12 | 48.69213 | 9.20736 | 1277 ft | 0 kts | 343° |
| 2026-05-04 16:37 | 48.69204 | 9.20740 | 1277 ft | 1 kts | 343° |
| 2026-05-04 16:38 | 48.69172 | 9.20758 | 1277 ft | 2 kts | 318° |
| 2026-05-04 16:39 | 48.69164 | 9.20776 | 1276 ft | 0 kts | 256° |
| 2026-05-04 16:42 | 48.69147 | 9.20674 | 1278 ft | 10 kts | 251° |
| 2026-05-04 16:43 | 48.69069 | 9.20440 | 1279 ft | 15 kts | 230° |
| 2026-05-04 16:43 | 48.69015 | 9.20194 | 1287 ft | 11 kts | 254° |
| 2026-05-04 16:43 | 48.68990 | 9.20066 | 1291 ft | 12 kts | 249° |
| 2026-05-04 16:44 | 48.68860 | 9.19855 | 1290 ft | 10 kts | 151° |
| 2026-05-04 16:45 | 48.68781 | 9.19950 | 1285 ft | 9 kts | 164° |
| 2026-05-04 16:46 | 48.68678 | 9.19989 | 1286 ft | 0 kts | 164° |
| 2026-05-04 16:47 | 48.68667 | 9.19995 | 1289 ft | 6 kts | 161° |
| 2026-05-04 16:48 | 48.68651 | 9.20432 | 1281 ft | 12 kts | 74° |
| 2026-05-04 16:48 | 48.68751 | 9.20948 | 1266 ft | 88 kts | 73° |
| 2026-05-04 16:49 | 48.69257 | 9.23700 | 1581 ft | 157 kts | 73° |
| 2026-05-04 16:49 | 48.69807 | 9.27156 | 2546 ft | 182 kts | 72° |
| 2026-05-04 16:50 | 48.70551 | 9.30947 | 3496 ft | 202 kts | 70° |
| 2026-05-04 16:50 | 48.71513 | 9.35424 | 4048 ft | 245 kts | 71° |
| 2026-05-04 16:51 | 48.72547 | 9.40830 | 4856 ft | 284 kts | 73° |
| 2026-05-04 16:51 | 48.73084 | 9.43702 | 4988 ft | 284 kts | 73° |
| 2026-05-04 16:51 | 48.74161 | 9.49456 | 6402 ft | 286 kts | 74° |
| 2026-05-04 16:52 | 48.75257 | 9.55280 | 8668 ft | 290 kts | 76° |
| 2026-05-04 16:52 | 48.75814 | 9.58248 | 9695 ft | 296 kts | 77° |
| 2026-05-04 16:53 | 48.76981 | 9.64532 | 10965 ft | 333 kts | 76° |
| 2026-05-04 16:53 | 48.78982 | 9.75290 | 13199 ft | 364 kts | 76° |
| 2026-05-04 16:54 | 48.79661 | 9.78958 | 14063 ft | 369 kts | 76° |
| 2026-05-04 16:55 | 48.82498 | 9.94381 | 17196 ft | 390 kts | 76° |
| 2026-05-04 16:55 | 48.83964 | 10.02394 | 18683 ft | 399 kts | 76° |
| 2026-05-04 16:56 | 48.85130 | 10.10682 | 20065 ft | 404 kts | 88° |
| 2026-05-04 16:56 | 48.84440 | 10.23496 | 22088 ft | 412 kts | 99° |
| 2026-05-04 16:57 | 48.84092 | 10.27780 | 22720 ft | 416 kts | 99° |
| 2026-05-04 16:57 | 48.83360 | 10.36569 | 23958 ft | 423 kts | 103° |
| 2026-05-04 16:58 | 48.79145 | 10.47986 | 25537 ft | 420 kts | 136° |
| 2026-05-04 16:58 | 48.77143 | 10.51166 | 26025 ft | 424 kts | 136° |
| 2026-05-04 16:59 | 48.73051 | 10.57687 | 27017 ft | 430 kts | 136° |
| 2026-05-04 17:00 | 48.64677 | 10.71016 | 28817 ft | 443 kts | 136° |
| 2026-05-04 17:00 | 48.59280 | 10.82416 | 29953 ft | 461 kts | 111° |
| 2026-05-04 17:01 | 48.58303 | 10.92047 | 30653 ft | 471 kts | 93° |
| 2026-05-04 17:01 | 48.58172 | 11.01982 | 31444 ft | 474 kts | 92° |
| 2026-05-04 17:02 | 48.57964 | 11.11907 | 32388 ft | 472 kts | 94° |
| 2026-05-04 17:02 | 48.57755 | 11.21788 | 33308 ft | 471 kts | 92° |
| 2026-05-04 17:03 | 48.57674 | 11.26723 | 33768 ft | 470 kts | 92° |
| 2026-05-04 17:03 | 48.57591 | 11.31575 | 34181 ft | 469 kts | 92° |
| 2026-05-04 17:03 | 48.57405 | 11.41409 | 34917 ft | 467 kts | 93° |
| 2026-05-04 17:04 | 48.57207 | 11.51114 | 35598 ft | 467 kts | 93° |
| 2026-05-04 17:04 | 48.56800 | 11.60965 | 36261 ft | 465 kts | 100° |
| 2026-05-04 17:05 | 48.55466 | 11.70426 | 36868 ft | 463 kts | 104° |
| 2026-05-04 17:05 | 48.54078 | 11.79913 | 37474 ft | 463 kts | 104° |
| 2026-05-04 17:06 | 48.52689 | 11.89375 | 38036 ft | 462 kts | 104° |
| 2026-05-04 17:06 | 48.51992 | 11.94095 | 38308 ft | 461 kts | 104° |
| 2026-05-04 17:07 | 48.50600 | 12.03471 | 38754 ft | 461 kts | 104° |
| 2026-05-04 17:07 | 48.50125 | 12.06654 | 38869 ft | 461 kts | 104° |
| 2026-05-04 17:07 | 48.48483 | 12.17614 | 38923 ft | 460 kts | 104° |
| 2026-05-04 17:08 | 48.46358 | 12.31691 | 38917 ft | 459 kts | 103° |
| 2026-05-04 17:09 | 48.44931 | 12.41072 | 38910 ft | 459 kts | 103° |
| 2026-05-04 17:09 | 48.43498 | 12.50445 | 38910 ft | 459 kts | 103° |
| 2026-05-04 17:10 | 48.40125 | 12.73850 | 38905 ft | 459 kts | 96° |
| 2026-05-04 17:11 | 48.39943 | 12.83431 | 38905 ft | 459 kts | 86° |
| 2026-05-04 17:12 | 48.40395 | 12.97736 | 38898 ft | 458 kts | 87° |
| 2026-05-04 17:13 | 48.41066 | 13.21680 | 38899 ft | 458 kts | 88° |
| 2026-05-04 17:14 | 48.39804 | 13.35797 | 38893 ft | 457 kts | 108° |
| 2026-05-04 17:14 | 48.38723 | 13.40284 | 38889 ft | 456 kts | 114° |
| 2026-05-04 17:15 | 48.35003 | 13.53446 | 38894 ft | 456 kts | 113° |
| 2026-05-04 17:16 | 48.30030 | 13.71023 | 38888 ft | 457 kts | 114° |
| 2026-05-04 17:17 | 48.25039 | 13.88496 | 38887 ft | 457 kts | 114° |
| 2026-05-04 17:18 | 48.20000 | 14.06014 | 38885 ft | 458 kts | 114° |
| 2026-05-04 17:19 | 48.14947 | 14.23450 | 38888 ft | 458 kts | 114° |
| 2026-05-04 17:20 | 48.09848 | 14.40919 | 38898 ft | 458 kts | 114° |
| 2026-05-04 17:20 | 48.06008 | 14.53995 | 38903 ft | 458 kts | 114° |
| 2026-05-04 17:21 | 48.00882 | 14.71339 | 38907 ft | 458 kts | 114° |
| 2026-05-04 17:22 | 47.98301 | 14.80026 | 38917 ft | 458 kts | 114° |
| 2026-05-04 17:23 | 47.93117 | 14.97381 | 38920 ft | 458 kts | 114° |
| 2026-05-04 17:24 | 47.89232 | 15.10309 | 38923 ft | 458 kts | 114° |
| 2026-05-04 17:25 | 47.83985 | 15.27661 | 38940 ft | 462 kts | 115° |
| 2026-05-04 17:26 | 47.78681 | 15.45081 | 38953 ft | 462 kts | 114° |
| 2026-05-04 17:27 | 47.72054 | 15.66672 | 38967 ft | 460 kts | 114° |
| 2026-05-04 17:28 | 47.66709 | 15.83954 | 38969 ft | 460 kts | 114° |
| 2026-05-04 17:29 | 47.58672 | 16.09718 | 38966 ft | 460 kts | 114° |
| 2026-05-04 17:31 | 47.51930 | 16.31128 | 38967 ft | 458 kts | 114° |
| 2026-05-04 17:32 | 47.45188 | 16.52362 | 38965 ft | 457 kts | 114° |
| 2026-05-04 17:33 | 47.39794 | 16.69615 | 38969 ft | 471 kts | 113° |
| 2026-05-04 17:34 | 47.34498 | 16.87227 | 38973 ft | 472 kts | 114° |
| 2026-05-04 17:35 | 47.27798 | 17.09281 | 38986 ft | 471 kts | 114° |
| 2026-05-04 17:36 | 47.25122 | 17.18013 | 38990 ft | 471 kts | 114° |
| 2026-05-04 17:36 | 47.22424 | 17.26786 | 38988 ft | 471 kts | 114° |
| 2026-05-04 17:37 | 47.19719 | 17.35554 | 38995 ft | 471 kts | 114° |
| 2026-05-04 17:37 | 47.17008 | 17.44306 | 38995 ft | 470 kts | 114° |
| 2026-05-04 17:38 | 47.14295 | 17.53038 | 38997 ft | 470 kts | 114° |
| 2026-05-04 17:38 | 47.11591 | 17.61711 | 38999 ft | 470 kts | 114° |
| 2026-05-04 17:39 | 47.07502 | 17.74768 | 39009 ft | 469 kts | 114° |
| 2026-05-04 17:39 | 47.04771 | 17.83450 | 39013 ft | 469 kts | 114° |
| 2026-05-04 17:40 | 47.02034 | 17.92122 | 39011 ft | 468 kts | 114° |
| 2026-05-04 17:40 | 46.99293 | 18.00780 | 39013 ft | 468 kts | 114° |
| 2026-05-04 17:41 | 46.96564 | 18.09367 | 39015 ft | 468 kts | 114° |
| 2026-05-04 17:41 | 46.93811 | 18.18003 | 39019 ft | 468 kts | 114° |
| 2026-05-04 17:42 | 46.91050 | 18.26635 | 39020 ft | 468 kts | 114° |
| 2026-05-04 17:42 | 46.88282 | 18.35258 | 39021 ft | 469 kts | 114° |
| 2026-05-04 17:43 | 46.85506 | 18.43876 | 39024 ft | 469 kts | 114° |
| 2026-05-04 17:43 | 46.82741 | 18.52433 | 39031 ft | 469 kts | 114° |
| 2026-05-04 17:44 | 46.79951 | 18.61036 | 39028 ft | 469 kts | 114° |
| 2026-05-04 17:44 | 46.77159 | 18.69619 | 39032 ft | 469 kts | 114° |
| 2026-05-04 17:45 | 46.74350 | 18.78223 | 39030 ft | 469 kts | 114° |
| 2026-05-04 17:45 | 46.71536 | 18.86815 | 39035 ft | 469 kts | 115° |
| 2026-05-04 17:46 | 46.68718 | 18.95390 | 39035 ft | 469 kts | 115° |
| 2026-05-04 17:46 | 46.65912 | 19.03903 | 39035 ft | 469 kts | 115° |
| 2026-05-04 17:47 | 46.63081 | 19.12463 | 39035 ft | 469 kts | 115° |
| 2026-05-04 17:47 | 46.60243 | 19.21014 | 39044 ft | 470 kts | 115° |
| 2026-05-04 17:48 | 46.57398 | 19.29559 | 39042 ft | 469 kts | 115° |
| 2026-05-04 17:48 | 46.54550 | 19.38086 | 39047 ft | 469 kts | 115° |
| 2026-05-04 17:49 | 46.51718 | 19.46537 | 39045 ft | 469 kts | 115° |
| 2026-05-04 17:49 | 46.48860 | 19.55039 | 39050 ft | 468 kts | 115° |
| 2026-05-04 17:50 | 46.45997 | 19.63526 | 39051 ft | 468 kts | 115° |
| 2026-05-04 17:50 | 46.43129 | 19.72000 | 39056 ft | 468 kts | 115° |
| 2026-05-04 17:51 | 46.40276 | 19.80404 | 39052 ft | 468 kts | 115° |
| 2026-05-04 17:51 | 46.37396 | 19.88859 | 39054 ft | 468 kts | 115° |
| 2026-05-04 17:52 | 46.34511 | 19.97305 | 39055 ft | 468 kts | 115° |
| 2026-05-04 17:52 | 46.31621 | 20.05736 | 39061 ft | 467 kts | 115° |
| 2026-05-04 17:53 | 46.28730 | 20.14143 | 39059 ft | 467 kts | 115° |
| 2026-05-04 17:53 | 46.25847 | 20.22500 | 39059 ft | 467 kts | 115° |
| 2026-05-04 17:54 | 46.22943 | 20.30891 | 39061 ft | 467 kts | 115° |
| 2026-05-04 17:54 | 46.20032 | 20.39277 | 39059 ft | 467 kts | 115° |
| 2026-05-04 17:55 | 46.17608 | 20.46239 | 39060 ft | 467 kts | 115° |
| 2026-05-04 17:55 | 46.14688 | 20.54601 | 39061 ft | 467 kts | 115° |
| 2026-05-04 17:56 | 46.11287 | 20.64309 | 39065 ft | 467 kts | 115° |
| 2026-05-04 17:56 | 46.08353 | 20.72655 | 39066 ft | 467 kts | 115° |
| 2026-05-04 17:57 | 46.05907 | 20.79591 | 39062 ft | 467 kts | 115° |
| 2026-05-04 17:57 | 46.02961 | 20.87923 | 39069 ft | 467 kts | 115° |
| 2026-05-04 17:58 | 46.00019 | 20.96218 | 39070 ft | 468 kts | 115° |
| 2026-05-04 17:58 | 45.97042 | 21.04585 | 39069 ft | 468 kts | 115° |
| 2026-05-04 17:59 | 45.94073 | 21.12906 | 39071 ft | 469 kts | 115° |
| 2026-05-04 18:00 | 45.89619 | 21.25336 | 39068 ft | 469 kts | 116° |
| 2026-05-04 18:00 | 45.86630 | 21.33649 | 39067 ft | 469 kts | 116° |
| 2026-05-04 18:01 | 45.83631 | 21.41959 | 39076 ft | 469 kts | 116° |
| 2026-05-04 18:01 | 45.80628 | 21.50258 | 39078 ft | 469 kts | 116° |
| 2026-05-04 18:02 | 45.76111 | 21.62692 | 39074 ft | 469 kts | 116° |
| 2026-05-04 18:02 | 45.73095 | 21.70962 | 39073 ft | 469 kts | 116° |
| 2026-05-04 18:03 | 45.70090 | 21.79176 | 39075 ft | 469 kts | 116° |
| 2026-05-04 18:03 | 45.67061 | 21.87433 | 39078 ft | 469 kts | 116° |
| 2026-05-04 18:04 | 45.64039 | 21.95642 | 38724 ft | 463 kts | 116° |
| 2026-05-04 18:04 | 45.61071 | 22.03677 | 37867 ft | 450 kts | 116° |
| 2026-05-04 18:05 | 45.59619 | 22.07603 | 37199 ft | 449 kts | 116° |
| 2026-05-04 18:05 | 45.58151 | 22.11565 | 36446 ft | 450 kts | 115° |
| 2026-05-04 18:05 | 45.56685 | 22.15517 | 35711 ft | 451 kts | 115° |
| 2026-05-04 18:05 | 45.55220 | 22.19460 | 35008 ft | 451 kts | 115° |
| 2026-05-04 18:06 | 45.52286 | 22.27337 | 33505 ft | 453 kts | 115° |
| 2026-05-04 18:06 | 45.50807 | 22.31302 | 32681 ft | 454 kts | 115° |
| 2026-05-04 18:06 | 45.49328 | 22.35261 | 32245 ft | 452 kts | 115° |
| 2026-05-04 18:07 | 45.47836 | 22.39250 | 32110 ft | 461 kts | 115° |
| 2026-05-04 18:07 | 45.46328 | 22.43277 | 32098 ft | 462 kts | 115° |
| 2026-05-04 18:07 | 45.43294 | 22.51351 | 32098 ft | 462 kts | 116° |
| 2026-05-04 18:08 | 45.40260 | 22.59400 | 32099 ft | 461 kts | 116° |
| 2026-05-04 18:08 | 45.37224 | 22.67438 | 32097 ft | 461 kts | 116° |
| 2026-05-04 18:09 | 45.31155 | 22.83429 | 32090 ft | 461 kts | 116° |
| 2026-05-04 18:10 | 45.28099 | 22.91444 | 32085 ft | 461 kts | 116° |
| 2026-05-04 18:10 | 45.25044 | 22.99442 | 32082 ft | 461 kts | 116° |
| 2026-05-04 18:11 | 45.21981 | 23.07432 | 32078 ft | 461 kts | 116° |
| 2026-05-04 18:11 | 45.18935 | 23.15365 | 32071 ft | 460 kts | 117° |
| 2026-05-04 18:12 | 45.15868 | 23.23337 | 32067 ft | 461 kts | 117° |
| 2026-05-04 18:12 | 45.12798 | 23.31299 | 31935 ft | 461 kts | 117° |
| 2026-05-04 18:13 | 45.11263 | 23.35280 | 31673 ft | 460 kts | 116° |
| 2026-05-04 18:13 | 45.10015 | 23.39444 | 31412 ft | 458 kts | 107° |
| 2026-05-04 18:13 | 45.08355 | 23.48096 | 29901 ft | 451 kts | 104° |
| 2026-05-04 18:14 | 45.07589 | 23.52301 | 29631 ft | 431 kts | 104° |
| 2026-05-04 18:14 | 45.06848 | 23.56321 | 28991 ft | 419 kts | 105° |
| 2026-05-04 18:14 | 45.06115 | 23.60243 | 27672 ft | 425 kts | 105° |
| 2026-05-04 18:15 | 45.04568 | 23.68411 | 24922 ft | 437 kts | 104° |
| 2026-05-04 18:15 | 45.02976 | 23.76746 | 22712 ft | 430 kts | 103° |
| 2026-05-04 18:15 | 45.02206 | 23.80755 | 22193 ft | 411 kts | 103° |
| 2026-05-04 18:16 | 45.01480 | 23.84531 | 21863 ft | 389 kts | 103° |
| 2026-05-04 18:16 | 45.00783 | 23.88147 | 21494 ft | 371 kts | 103° |
| 2026-05-04 18:16 | 45.00122 | 23.91574 | 21096 ft | 356 kts | 103° |
| 2026-05-04 18:17 | 44.98847 | 23.98190 | 19832 ft | 343 kts | 102° |
| 2026-05-04 18:17 | 44.98222 | 24.01420 | 19137 ft | 339 kts | 102° |
| 2026-05-04 18:17 | 44.96995 | 24.07759 | 17762 ft | 330 kts | 102° |
| 2026-05-04 18:18 | 44.96400 | 24.10824 | 17032 ft | 326 kts | 102° |
| 2026-05-04 18:18 | 44.95806 | 24.13887 | 16317 ft | 323 kts | 102° |
| 2026-05-04 18:18 | 44.95214 | 24.16932 | 15607 ft | 319 kts | 102° |
| 2026-05-04 18:18 | 44.94629 | 24.19932 | 14917 ft | 315 kts | 102° |
| 2026-05-04 18:19 | 44.93481 | 24.25799 | 13846 ft | 300 kts | 102° |
| 2026-05-04 18:19 | 44.92933 | 24.28580 | 13588 ft | 291 kts | 102° |
| 2026-05-04 18:19 | 44.92391 | 24.31353 | 13314 ft | 290 kts | 102° |
| 2026-05-04 18:20 | 44.91857 | 24.34072 | 13061 ft | 288 kts | 102° |
| 2026-05-04 18:20 | 44.91321 | 24.36801 | 12807 ft | 288 kts | 102° |
| 2026-05-04 18:20 | 44.90788 | 24.39512 | 12545 ft | 286 kts | 102° |
| 2026-05-04 18:20 | 44.90234 | 24.42345 | 12293 ft | 319 kts | 102° |
| 2026-05-04 18:21 | 44.89627 | 24.45452 | 12041 ft | 333 kts | 102° |
| 2026-05-04 18:21 | 44.89011 | 24.48553 | 11788 ft | 331 kts | 103° |
| 2026-05-04 18:21 | 44.88390 | 24.51664 | 11541 ft | 330 kts | 102° |
| 2026-05-04 18:21 | 44.87768 | 24.54782 | 11287 ft | 330 kts | 102° |
| 2026-05-04 18:22 | 44.87148 | 24.57893 | 11095 ft | 329 kts | 102° |
| 2026-05-04 18:22 | 44.86528 | 24.61003 | 11040 ft | 329 kts | 102° |
| 2026-05-04 18:22 | 44.85909 | 24.64107 | 11040 ft | 330 kts | 102° |
| 2026-05-04 18:22 | 44.85286 | 24.67223 | 11034 ft | 330 kts | 102° |
| 2026-05-04 18:23 | 44.84662 | 24.70338 | 11044 ft | 331 kts | 102° |
| 2026-05-04 18:23 | 44.84037 | 24.73459 | 11039 ft | 331 kts | 102° |
| 2026-05-04 18:23 | 44.83412 | 24.76574 | 11033 ft | 331 kts | 102° |
| 2026-05-04 18:23 | 44.82792 | 24.79660 | 11041 ft | 331 kts | 102° |
| 2026-05-04 18:24 | 44.82163 | 24.82783 | 11034 ft | 332 kts | 102° |
| 2026-05-04 18:24 | 44.81534 | 24.85902 | 11036 ft | 332 kts | 102° |
| 2026-05-04 18:24 | 44.80902 | 24.89030 | 11041 ft | 332 kts | 102° |
| 2026-05-04 18:24 | 44.80270 | 24.92153 | 11032 ft | 332 kts | 102° |
| 2026-05-04 18:25 | 44.79638 | 24.95268 | 11039 ft | 332 kts | 102° |
| 2026-05-04 18:25 | 44.79001 | 24.98406 | 11033 ft | 333 kts | 102° |
| 2026-05-04 18:25 | 44.78364 | 25.01540 | 11021 ft | 333 kts | 102° |
| 2026-05-04 18:25 | 44.77726 | 25.04677 | 10813 ft | 333 kts | 102° |
| 2026-05-04 18:26 | 44.77087 | 25.07807 | 10569 ft | 332 kts | 102° |
| 2026-05-04 18:26 | 44.76460 | 25.10874 | 10412 ft | 328 kts | 102° |
| 2026-05-04 18:26 | 44.75839 | 25.13898 | 10304 ft | 315 kts | 101° |
| 2026-05-04 18:26 | 44.75243 | 25.16799 | 10188 ft | 302 kts | 100° |
| 2026-05-04 18:27 | 44.74756 | 25.19606 | 9986 ft | 290 kts | 97° |
| 2026-05-04 18:27 | 44.74361 | 25.22352 | 9713 ft | 282 kts | 96° |
| 2026-05-04 18:27 | 44.73986 | 25.25061 | 9581 ft | 284 kts | 96° |
| 2026-05-04 18:27 | 44.73602 | 25.27776 | 9450 ft | 283 kts | 96° |
| 2026-05-04 18:28 | 44.73195 | 25.30480 | 9318 ft | 283 kts | 100° |
| 2026-05-04 18:28 | 44.72350 | 25.33008 | 9084 ft | 288 kts | 116° |
| 2026-05-04 18:28 | 44.71311 | 25.35408 | 8731 ft | 287 kts | 116° |
| 2026-05-04 18:28 | 44.70280 | 25.37794 | 8328 ft | 285 kts | 116° |
| 2026-05-04 18:29 | 44.69269 | 25.40138 | 7939 ft | 283 kts | 116° |
| 2026-05-04 18:29 | 44.68256 | 25.42500 | 7546 ft | 281 kts | 116° |
| 2026-05-04 18:29 | 44.67253 | 25.44848 | 7167 ft | 279 kts | 116° |
| 2026-05-04 18:29 | 44.66260 | 25.47182 | 6798 ft | 277 kts | 116° |
| 2026-05-04 18:30 | 44.64309 | 25.51798 | 6034 ft | 274 kts | 116° |
| 2026-05-04 18:30 | 44.63347 | 25.54106 | 5650 ft | 272 kts | 116° |
| 2026-05-04 18:30 | 44.62404 | 25.56388 | 5278 ft | 270 kts | 116° |
| 2026-05-04 18:31 | 44.61473 | 25.58669 | 4888 ft | 268 kts | 116° |
| 2026-05-04 18:31 | 44.60701 | 25.61022 | 4475 ft | 264 kts | 101° |
| 2026-05-04 18:31 | 44.60359 | 25.63507 | 4056 ft | 264 kts | 98° |
| 2026-05-04 18:31 | 44.60036 | 25.66051 | 3627 ft | 264 kts | 98° |
| 2026-05-04 18:32 | 44.59713 | 25.68589 | 3224 ft | 264 kts | 99° |
| 2026-05-04 18:32 | 44.59385 | 25.71126 | 2829 ft | 264 kts | 99° |
| 2026-05-04 18:32 | 44.59054 | 25.73651 | 2551 ft | 262 kts | 99° |
| 2026-05-04 18:32 | 44.58716 | 25.76199 | 2494 ft | 267 kts | 100° |
| 2026-05-04 18:33 | 44.58377 | 25.78749 | 2491 ft | 266 kts | 100° |
| 2026-05-04 18:33 | 44.58037 | 25.81287 | 2492 ft | 261 kts | 100° |
| 2026-05-04 18:33 | 44.57714 | 25.83699 | 2492 ft | 246 kts | 100° |
| 2026-05-04 18:33 | 44.57404 | 25.86002 | 2488 ft | 232 kts | 100° |
| 2026-05-04 18:34 | 44.57114 | 25.88154 | 2492 ft | 218 kts | 100° |
| 2026-05-04 18:34 | 44.56840 | 25.90184 | 2494 ft | 205 kts | 100° |
| 2026-05-04 18:34 | 44.56635 | 25.92108 | 2499 ft | 198 kts | 93° |